Time;durP1;ratioP1;P1;durP2;ratioP2;P2;SDS_P1;SDS_P2;PMS_P1;PMS_P2;Temp;Humidity;BMP_temperature;BMP_pressure;BME280_temperature;BME280_humidity;BME280_pressure;Samples;Min_cycle;Max_cycle;Signal;HPM_P1;HPM_P2
2021/12/27 00:03:56;;;;;;;12.75;6.53;;;5.40;99.90;;;;;;20642373;28;20405;-75
2021/12/27 00:13:57;;;;;;;16.73;6.95;;;5.40;99.90;;;;;;20622358;28;20117;-75
2021/12/27 00:23:58;;;;;;;17.03;7.47;;;5.40;99.90;;;;;;20561395;28;20069;-76
2021/12/27 00:33:58;;;;;;;18.73;7.63;;;5.50;99.90;;;;;;20591407;28;20041;-75
2021/12/27 00:43:59;;;;;;;11.97;5.30;;;5.30;99.90;;;;;;20641250;28;20281;-75
2021/12/27 00:54:00;;;;;;;16.30;6.73;;;5.10;99.90;;;;;;20629956;28;20040;-75
2021/12/27 01:04:01;;;;;;;16.90;6.90;;;5.20;99.90;;;;;;20638250;28;20059;-75
2021/12/27 01:14:15;;;;;;;15.75;7.47;;;5.00;99.90;;;;;;20655427;28;20042;-75
2021/12/27 01:24:15;;;;;;;18.15;7.18;;;5.10;99.90;;;;;;20611516;28;20030;-75
2021/12/27 01:34:16;;;;;;;17.90;7.63;;;5.20;99.90;;;;;;20595337;28;20058;-74
2021/12/27 01:44:18;;;;;;;24.95;9.52;;;5.20;99.90;;;;;;20551677;28;20049;-75
2021/12/27 01:54:19;;;;;;;30.67;10.65;;;5.20;99.90;;;;;;20559259;28;20030;-75
2021/12/27 02:04:20;;;;;;;29.17;10.40;;;5.10;99.90;;;;;;20575807;28;20042;-75
2021/12/27 02:14:20;;;;;;;27.27;9.00;;;5.30;99.90;;;;;;20553214;28;20042;-75
2021/12/27 02:24:21;;;;;;;15.57;7.17;;;5.20;99.90;;;;;;20542051;28;20043;-75
2021/12/27 02:34:22;;;;;;;23.17;8.13;;;5.10;99.90;;;;;;20554600;28;20377;-76
2021/12/27 02:44:23;;;;;;;24.77;8.77;;;5.20;99.90;;;;;;20696858;23;20164;-79
2021/12/27 02:54:24;;;;;;;18.60;7.20;;;5.40;99.90;;;;;;20775179;28;20285;-79
2021/12/27 03:04:25;;;;;;;16.23;6.33;;;5.40;99.90;;;;;;20743609;28;20042;-78
2021/12/27 03:14:25;;;;;;;14.03;6.73;;;5.40;99.90;;;;;;20722588;28;20128;-78
2021/12/27 03:24:26;;;;;;;12.25;5.57;;;5.00;99.90;;;;;;20745512;28;20401;-78
2021/12/27 03:34:27;;;;;;;;;;;4.90;99.90;;;;;;20782218;28;20720;-78
2021/12/27 03:44:28;;;;;;;15.60;6.90;;;4.90;99.90;;;;;;20784390;28;19913;-78
2021/12/27 03:54:29;;;;;;;11.43;5.13;;;4.70;99.90;;;;;;20771567;28;20285;-79
2021/12/27 04:04:30;;;;;;;;;;;4.40;99.90;;;;;;20786025;28;20034;-78
2021/12/27 04:14:30;;;;;;;41.00;11.63;;;4.70;99.90;;;;;;20783752;28;20364;-78
2021/12/27 04:24:31;;;;;;;53.30;16.63;;;5.00;99.90;;;;;;20789637;28;20552;-78
2021/12/27 04:34:32;;;;;;;38.80;13.13;;;5.30;99.90;;;;;;20804156;28;20515;-78
2021/12/27 04:44:33;;;;;;;31.38;11.32;;;5.20;99.90;;;;;;20759621;28;20088;-78
2021/12/27 04:54:34;;;;;;;;;;;5.10;99.90;;;;;;20753347;28;20021;-78
2021/12/27 05:04:35;;;;;;;24.50;9.33;;;5.10;99.90;;;;;;20738880;28;19909;-79
2021/12/27 05:14:36;;;;;;;69.68;9.50;;;5.00;99.90;;;;;;20756812;28;20288;-78
2021/12/27 05:24:37;;;;;;;21.23;8.43;;;4.80;99.90;;;;;;20735679;28;20042;-79
2021/12/27 05:34:37;;;;;;;23.90;7.93;;;4.70;99.90;;;;;;20755675;28;20324;-78
2021/12/27 05:44:39;;;;;;;29.13;8.90;;;4.70;99.90;;;;;;20754390;28;20343;-78
2021/12/27 05:54:39;;;;;;;22.25;8.90;;;5.00;99.90;;;;;;20744044;28;20284;-78
2021/12/27 06:04:40;;;;;;;20.97;7.27;;;5.10;99.90;;;;;;20752549;28;20053;-78
2021/12/27 06:14:41;;;;;;;18.03;7.17;;;5.10;99.90;;;;;;20752241;28;20304;-78
2021/12/27 06:24:42;;;;;;;19.92;6.68;;;5.10;99.90;;;;;;20753409;28;20108;-78
2021/12/27 06:34:43;;;;;;;22.20;7.70;;;5.20;99.90;;;;;;20752149;28;20535;-78
2021/12/27 06:44:43;;;;;;;20.35;6.15;;;5.30;99.90;;;;;;20753018;28;20523;-78
2021/12/27 06:54:45;;;;;;;15.60;6.30;;;5.30;99.90;;;;;;20749900;28;20062;-79
2021/12/27 07:04:45;;;;;;;18.65;5.43;;;5.30;99.90;;;;;;20773778;28;20033;-78
2021/12/27 07:14:48;;;;;;;12.97;5.47;;;5.30;99.90;;;;;;20791787;28;20074;-77
2021/12/27 07:24:49;;;;;;;14.88;5.22;;;5.30;99.90;;;;;;20775134;28;20040;-77
2021/12/27 07:34:50;;;;;;;11.18;4.90;;;5.30;99.90;;;;;;20785822;28;20038;-77
2021/12/27 07:44:51;;;;;;;12.77;4.90;;;5.30;99.90;;;;;;20774700;28;20480;-77
2021/12/27 07:54:52;;;;;;;14.97;5.37;;;5.40;99.90;;;;;;20789829;28;20022;-78
2021/12/27 08:04:53;;;;;;;15.20;5.75;;;5.40;99.90;;;;;;20792908;28;20030;-77
2021/12/27 08:14:53;;;;;;;14.02;5.28;;;5.40;99.90;;;;;;20784498;28;20022;-77
2021/12/27 08:24:55;;;;;;;15.03;5.03;;;5.50;99.90;;;;;;20749904;28;20045;-79
2021/12/27 08:34:56;;;;;;;14.77;5.40;;;5.50;99.90;;;;;;20702846;28;20084;-79
2021/12/27 08:44:58;;;;;;;12.32;5.57;;;5.60;99.90;;;;;;20705605;23;20385;-76
2021/12/27 08:55:01;;;;;;;11.65;4.15;;;5.70;99.90;;;;;;20617825;28;20027;-76
2021/12/27 09:05:03;;;;;;;17.33;5.30;;;5.70;99.90;;;;;;20641270;28;20105;-76
2021/12/27 09:15:05;;;;;;;13.50;5.90;;;5.70;99.90;;;;;;20666481;28;20517;-76
2021/12/27 09:25:06;;;;;;;18.65;7.25;;;5.80;99.90;;;;;;20618744;28;20043;-77
2021/12/27 09:35:07;;;;;;;;;;;6.00;99.90;;;;;;20629643;28;20026;-76
2021/12/27 09:45:08;;;;;;;20.08;8.43;;;6.10;99.90;;;;;;20610346;28;19992;-76
2021/12/27 09:55:10;;;;;;;;;;;6.30;99.90;;;;;;20629630;28;20027;-78
2021/12/27 10:05:11;;;;;;;14.83;6.67;;;6.50;99.90;;;;;;20626966;28;19964;-77
2021/12/27 10:15:16;;;;;;;11.77;6.10;;;6.60;99.90;;;;;;20604192;28;20149;-78
2021/12/27 10:25:23;;;;;;;15.88;7.78;;;6.60;99.90;;;;;;20633270;28;20735;-78
2021/12/27 10:35:36;;;;;;;17.63;7.03;;;6.70;99.90;;;;;;20614400;28;20033;-77
2021/12/27 10:45:39;;;;;;;21.58;8.02;;;6.60;99.90;;;;;;20604618;28;20073;-77
2021/12/27 10:55:46;;;;;;;20.10;6.82;;;6.70;99.90;;;;;;20627401;28;20030;-77
2021/12/27 11:05:47;;;;;;;18.90;8.55;;;6.80;99.90;;;;;;20641305;28;20038;-78
2021/12/27 11:15:48;;;;;;;23.57;9.27;;;6.90;99.90;;;;;;20640104;28;20750;-77
2021/12/27 11:26:03;;;;;;;20.33;9.53;;;7.00;99.90;;;;;;20584671;28;20031;-77
2021/12/27 11:36:07;;;;;;;20.02;9.48;;;7.00;99.90;;;;;;20646910;28;20290;-77
2021/12/27 11:46:08;;;;;;;15.52;7.88;;;7.00;99.90;;;;;;20610741;28;20691;-77
2021/12/27 11:56:10;;;;;;;14.87;8.77;;;7.10;99.90;;;;;;20629649;28;20030;-77
2021/12/27 12:06:41;;;;;;;17.83;8.95;;;7.20;99.90;;;;;;20630129;28;20065;-77
2021/12/27 12:16:49;;;;;;;17.83;9.23;;;7.40;99.90;;;;;;20644569;28;20048;-77
2021/12/27 12:27:01;;;;;;;20.73;9.35;;;7.40;99.90;;;;;;20626006;28;20038;-77
2021/12/27 12:37:08;;;;;;;14.85;7.68;;;7.50;99.90;;;;;;20619482;28;20034;-77
2021/12/27 12:47:12;;;;;;;17.27;8.88;;;7.70;99.90;;;;;;20602083;28;20038;-76
2021/12/27 12:57:26;;;;;;;16.38;7.07;;;7.80;99.90;;;;;;20634527;28;20033;-77
2021/12/27 13:07:49;;;;;;;15.25;7.32;;;7.80;99.90;;;;;;20673740;28;20042;-77
2021/12/27 13:18:13;;;;;;;87.60;32.17;;;7.90;99.90;;;;;;20728682;28;20044;-77
2021/12/27 13:28:17;;;;;;;16.17;9.40;;;7.90;99.90;;;;;;20696117;28;20045;-78
2021/12/27 13:38:25;;;;;;;27.27;10.20;;;7.70;99.90;;;;;;20601593;28;20034;-77
2021/12/27 13:48:31;;;;;;;18.80;9.48;;;7.60;99.90;;;;;;20697358;28;20050;-78
2021/12/27 13:58:38;;;;;;;18.60;11.25;;;7.30;99.90;;;;;;20669598;28;20034;-79
2021/12/27 14:08:53;;;;;;;23.00;11.27;;;7.10;99.90;;;;;;20641662;28;20030;-78
2021/12/27 14:19:10;;;;;;;27.17;13.90;;;7.10;99.90;;;;;;20631369;28;20033;-78
2021/12/27 14:29:19;;;;;;;29.58;12.18;;;7.00;99.90;;;;;;20625374;28;20106;-79
2021/12/27 14:39:20;;;;;;;22.88;11.68;;;6.80;99.90;;;;;;20639559;28;20063;-79
2021/12/27 14:49:22;;;;;;;31.40;14.13;;;6.70;99.90;;;;;;20553826;23;20481;-79
2021/12/27 14:59:23;;;;;;;30.00;13.43;;;6.60;99.90;;;;;;20572638;28;20030;-79
2021/12/27 15:09:24;;;;;;;31.40;14.07;;;6.50;99.90;;;;;;20511355;28;20038;-78
2021/12/27 15:19:24;;;;;;;33.00;15.10;;;6.50;99.90;;;;;;20570045;28;20035;-78
2021/12/27 15:29:25;;;;;;;39.43;15.97;;;6.50;99.90;;;;;;20537812;28;20325;-80
2021/12/27 15:39:26;;;;;;;30.87;15.00;;;6.60;99.90;;;;;;20528508;28;20117;-78
2021/12/27 15:49:27;;;;;;;36.30;17.07;;;6.60;99.90;;;;;;20523980;28;20038;-78
2021/12/27 15:59:30;;;;;;;37.17;17.10;;;6.60;99.90;;;;;;20539927;28;20046;-78
2021/12/27 16:09:31;;;;;;;30.95;14.95;;;6.50;99.90;;;;;;20614319;28;20094;-79
2021/12/27 16:19:33;;;;;;;15.97;8.20;;;6.50;99.90;;;;;;20569186;28;20142;-80
2021/12/27 16:29:35;;;;;;;17.42;8.65;;;6.60;99.90;;;;;;20587545;28;20125;-80
2021/12/27 16:39:37;;;;;;;15.07;6.80;;;6.70;99.90;;;;;;20587019;28;20555;-79
2021/12/27 16:49:38;;;;;;;10.43;4.28;;;6.60;99.90;;;;;;20604950;28;20049;-79
2021/12/27 16:59:39;;;;;;;5.55;2.95;;;6.70;99.90;;;;;;20592447;28;20039;-79
2021/12/27 17:09:40;;;;;;;4.80;2.73;;;6.70;99.90;;;;;;20632080;28;20132;-78
2021/12/27 17:19:41;;;;;;;5.63;2.73;;;6.60;99.90;;;;;;20580770;28;20133;-78
2021/12/27 17:29:42;;;;;;;5.97;2.93;;;6.50;99.90;;;;;;20575477;28;20478;-77
2021/12/27 17:39:43;;;;;;;5.73;3.50;;;6.50;99.90;;;;;;20557083;28;20421;-78
2021/12/27 17:49:44;;;;;;;6.53;4.20;;;6.50;99.90;;;;;;20603662;28;20065;-78
2021/12/27 17:59:45;;;;;;;6.13;3.80;;;6.50;99.90;;;;;;20612144;28;20031;-79
2021/12/27 18:09:48;;;;;;;7.30;4.03;;;6.50;99.90;;;;;;20650606;28;20041;-78
2021/12/27 18:19:50;;;;;;;9.85;5.05;;;6.40;99.90;;;;;;20613297;28;20081;-77
2021/12/27 18:29:50;;;;;;;12.48;6.03;;;6.30;99.90;;;;;;20606864;28;20041;-78
2021/12/27 18:39:51;;;;;;;17.43;9.40;;;6.30;99.90;;;;;;20610013;28;20035;-78
2021/12/27 18:49:52;;;;;;;12.37;6.77;;;6.20;99.90;;;;;;20535398;28;20027;-76
2021/12/27 18:59:53;;;;;;;11.20;6.27;;;6.20;99.90;;;;;;20505402;28;20031;-77
2021/12/27 19:09:54;;;;;;;46.13;11.17;;;6.20;99.90;;;;;;20545696;28;20030;-79
2021/12/27 19:19:55;;;;;;;11.33;6.83;;;6.30;99.90;;;;;;20579169;28;20026;-80
2021/12/27 19:29:55;;;;;;;11.70;6.77;;;6.30;99.90;;;;;;20559072;28;20038;-80
2021/12/27 19:39:57;;;;;;;10.70;6.37;;;6.30;99.90;;;;;;20557030;28;20045;-80
2021/12/27 19:49:58;;;;;;;17.88;9.15;;;6.20;99.90;;;;;;20575795;28;20038;-80
2021/12/27 19:59:58;;;;;;;14.70;7.87;;;6.20;99.90;;;;;;20578691;28;20133;-78
2021/12/27 20:10:00;;;;;;;16.50;8.63;;;6.20;99.90;;;;;;20556435;28;20121;-78
2021/12/27 20:20:02;;;;;;;10.73;6.85;;;6.20;99.90;;;;;;20577952;28;20045;-79
2021/12/27 20:30:05;;;;;;;35.63;15.90;;;6.10;99.90;;;;;;20551596;28;20652;-77
2021/12/27 20:40:07;;;;;;;45.50;18.52;;;6.20;99.90;;;;;;20519042;28;20051;-77
2021/12/27 20:50:11;;;;;;;33.97;9.57;;;6.10;99.90;;;;;;20696274;23;20136;-76
2021/12/27 21:00:24;;;;;;;8.93;4.95;;;5.60;99.90;;;;;;20710490;28;20113;-76
2021/12/27 21:10:25;;;;;;;9.25;4.15;;;5.30;99.90;;;;;;20688545;28;20042;-75
2021/12/27 21:20:25;;;;;;;;;;;4.60;99.90;;;;;;20610862;28;20269;-76
2021/12/27 21:30:26;;;;;;;58.92;10.27;;;5.00;99.90;;;;;;20587759;28;19921;-76
2021/12/27 21:40:28;;;;;;;27.10;10.70;;;4.60;99.90;;;;;;20681988;28;20445;-76
2021/12/27 21:50:31;;;;;;;12.38;6.05;;;4.70;99.90;;;;;;20674282;28;20030;-76
2021/12/27 22:00:37;;;;;;;29.65;11.30;;;4.80;99.90;;;;;;20692337;28;20031;-76
2021/12/27 22:10:39;;;;;;;7.97;3.63;;;4.60;99.90;;;;;;20660917;28;20504;-76
2021/12/27 22:20:40;;;;;;;5.35;2.78;;;4.40;99.90;;;;;;20686810;28;20125;-76
2021/12/27 22:30:41;;;;;;;;;;;4.30;99.90;;;;;;20657283;28;20185;-77
2021/12/27 22:40:42;;;;;;;6.80;1.80;;;4.40;99.90;;;;;;20654564;28;20471;-77
2021/12/27 22:50:42;;;;;;;;;;;4.50;99.90;;;;;;20635068;28;20121;-76
2021/12/27 23:00:49;;;;;;;6.03;1.57;;;4.50;99.90;;;;;;20649501;28;20028;-76
2021/12/27 23:10:50;;;;;;;4.97;1.73;;;4.60;99.90;;;;;;20648063;28;20305;-77
2021/12/27 23:20:51;;;;;;;11.57;1.92;;;4.70;99.90;;;;;;20651131;28;20031;-77
2021/12/27 23:30:52;;;;;;;9.05;2.72;;;4.80;99.90;;;;;;20653331;28;20030;-77
2021/12/27 23:40:54;;;;;;;15.38;5.20;;;4.80;99.90;;;;;;20635954;28;20169;-76
2021/12/27 23:50:56;;;;;;;33.08;4.22;;;4.70;99.90;;;;;;20651040;28;20046;-76
